Αναφορές Αεροδρομίων

 

KSJC - San Jose, California, USA
Distance from station: ΒΑ 14km
Ενημερώθηκε: 02/07/2022 18:53
Σχεδόν νεφελώδης
Σχεδόν νεφελώδης
 Ανεμος από ΒΔ
Ανεμος: ΒΔ 13 km/h
Θερμοκρασία: 16°C
Σημείο Δρόσου: 10°C
Υγρασία: 68%
Βαρόμετρο: 1016.3 hPa
Clouds: Σχεδόν νεφελώδης
Visibility: 16 km
Cloud details: Few Clouds 244 m
Μερικώς νεφελώδης 549 m
Σχεδόν νεφελώδης 823 m
2022/07/02 15:53 KSJC 021553Z 31007KT 10SM FEW008 SCT018 BKN027 16/10 A3001 RMK AO2 SLP160 T01560100
KNUQ - Moffett Nas/Mtn, California, USA
Distance from station: Β 14km
Ενημερώθηκε: 28/06/2022 14:55
NOT Current

 Ανεμος από calm
Ανεμος: Απνοια
Θερμοκρασία: 15°C
Σημείο Δρόσου: 12°C
Υγρασία: 82%
Βαρόμετρο: 1017.9 hPa
Visibility: 16 km
2022/06/28 11:55 KNUQ 281155Z AUTO 00000KT 10SM 15/12 A3006 RMK AO2
 
KPAO - Palo Alto, California, USA
Distance from station: ΒΒΔ 23km
Ενημερώθηκε: 02/07/2022 18:47
Σχεδόν νεφελώδης
Σχεδόν νεφελώδης
 Ανεμος από ΔΒΔ
Ανεμος: ΔΒΔ 9 km/h
Θερμοκρασία: 15°C
Σημείο Δρόσου: 11°C
Υγρασία: 77%
Βαρόμετρο: 1016.6 hPa
Clouds: Σχεδόν νεφελώδης
Visibility: 16 km
Cloud details: Σχεδόν νεφελώδης 549 m
2022/07/02 15:47 KPAO 021547Z 30005KT 10SM BKN018 15/11 A3002
KRHV - San Jose/Reid, California, USA
Distance from station: ΑΒΑ 19km
Ενημερώθηκε: 02/07/2022 18:47
Σχεδόν νεφελώδης
Σχεδόν νεφελώδης
 Ανεμος από calm
Ανεμος: Απνοια
Θερμοκρασία: 15°C
Σημείο Δρόσου: 9°C
Υγρασία: 68%
Βαρόμετρο: 1016.6 hPa
Clouds: Σχεδόν νεφελώδης
Visibility: 16 km
Cloud details: Σχεδόν νεφελώδης 610 m
2022/07/02 15:47 KRHV 021547Z 00000KT 10SM BKN020 15/09 A3002
 
KOAK - Oakland, California, USA
Distance from station: ΒΒΔ 50km
Ενημερώθηκε: 02/07/2022 18:53
Mist, Συννεφιά
Mist, Συννεφιά
 Ανεμος από ΔΝΔ
Ανεμος: ΔΝΔ 19 km/h
Θερμοκρασία: 14°C
Σημείο Δρόσου: 11°C
Υγρασία: 82%
Βαρόμετρο: 1016.3 hPa
Περίληψη: Mist
Clouds: Συννεφιά
Visibility: 10 km
Cloud details: Few Clouds 30 m
Συννεφιά 366 m
2022/07/02 15:53 KOAK 021553Z 25010KT 6SM BR FEW001 OVC012 14/11 A3001 RMK AO2 SLP162 T01390106
KSQL - San Carlos Airpo, California, USA
Distance from station: ΒΔ 34km
Ενημερώθηκε: 02/07/2022 18:50
Συννεφιά
Συννεφιά
 Ανεμος από ΝΔ
Ανεμος: ΝΔ 15 km/h
Θερμοκρασία: 13°C
Σημείο Δρόσου: 11°C
Υγρασία: 88%
Βαρόμετρο: 1016.6 hPa
Clouds: Συννεφιά
Visibility: 16 km
Cloud details: Συννεφιά 366 m
2022/07/02 15:50 KSQL 021550Z 23008KT 10SM OVC012 13/11 A3002
 
KSFO - San Francisco, California, USA
Distance from station: ΒΔ 49km
Ενημερώθηκε: 02/07/2022 18:56
Συννεφιά
Συννεφιά
 Ανεμος από Δ
Ανεμος: Δ 22 km/h, Ριπή: 35 km/h
Θερμοκρασία: 14°C
Σημείο Δρόσου: 11°C
Υγρασία: 82%
Βαρόμετρο: 1015.9 hPa
Clouds: Συννεφιά
Visibility: 14 km
Cloud details: Few Clouds 183 m
Σχεδόν νεφελώδης 305 m
Συννεφιά 366 m
2022/07/02 15:56 KSFO 021556Z 27012G19KT 9SM FEW006 BKN010 OVC012 14/11 A3000 RMK AO2 SLP159 T01390106
KE16 - San Martin, California, USA
Distance from station: ΑΝΑ 43km
Ενημερώθηκε: 02/07/2022 19:15
Συννεφιά
Συννεφιά
 Ανεμος από ΑΝΑ
Ανεμος: ΑΝΑ 6 km/h
Θερμοκρασία: 15°C
Σημείο Δρόσου: 10°C
Υγρασία: 72%
Βαρόμετρο: 1016.9 hPa
Clouds: Συννεφιά
Visibility: 16 km
Cloud details: Συννεφιά 640 m
2022/07/02 16:15 KE16 021615Z AUTO 11003KT 10SM OVC021 15/10 A3003 RMK AO2 PWINO PNO
 
KWVI - Watsonville, California, USA
Distance from station: ΝΝΑ 44km
Ενημερώθηκε: 02/07/2022 18:53
Συννεφιά
Συννεφιά
 Ανεμος από varies
Ανεμος: varies 6 km/h
Θερμοκρασία: 13°C
Σημείο Δρόσου: 10°C
Υγρασία: 82%
Βαρόμετρο: 1016.6 hPa
Clouds: Συννεφιά
Visibility: 16 km
Cloud details: Συννεφιά 488 m
2022/07/02 15:53 KWVI 021553Z AUTO VRB03KT 10SM OVC016 13/10 A3002 RMK AO2 SLP166 T01330100
KHAF - Half Moon Bay, California, USA
Distance from station: ΔΒΔ 50km
Ενημερώθηκε: 02/07/2022 19:15
Mist, Μερικώς νεφελώδης
Mist, Μερικώς νεφελώδης
 Ανεμος από ΒΔ
Ανεμος: ΒΔ 15 km/h
Θερμοκρασία: 12°C
Σημείο Δρόσου: 12°C
Υγρασία: 100%
Βαρόμετρο: 1016.9 hPa
Περίληψη: Mist
Clouds: Μερικώς νεφελώδης
Visibility: 6 km
Cloud details: Few Clouds 244 m
Μερικώς νεφελώδης 396 m
2022/07/02 16:15 KHAF 021615Z AUTO 31008KT 4SM BR FEW008 SCT013 12/12 A3003 RMK AO2
 
KHWD - Hayward, California, USA
Distance from station: Β 44km
Ενημερώθηκε: 02/07/2022 18:54
Συννεφιά
Συννεφιά
 Ανεμος από ΔΝΔ
Ανεμος: ΔΝΔ 15 km/h
Θερμοκρασία: 14°C
Σημείο Δρόσου: 11°C
Υγρασία: 82%
Βαρόμετρο: 1015.9 hPa
Clouds: Συννεφιά
Visibility: 16 km
Cloud details: Συννεφιά 366 m
2022/07/02 15:54 KHWD 021554Z 25008KT 10SM OVC012 14/11 A3000 RMK AO2 SLP169 T01390106
KLVK - Livermore, California, USA
Distance from station: ΒΒΑ 51km
Ενημερώθηκε: 02/07/2022 18:53
Συννεφιά
Συννεφιά
 Ανεμος από ΔΝΔ
Ανεμος: ΔΝΔ 15 km/h
Θερμοκρασία: 14°C
Σημείο Δρόσου: 11°C
Υγρασία: 82%
Βαρόμετρο: 1015.6 hPa
Clouds: Συννεφιά
Visibility: 16 km
Cloud details: Συννεφιά 335 m
2022/07/02 15:53 KLVK 021553Z 24008KT 10SM OVC011 14/11 A2999 RMK AO2 SLP153 T01390106